Time;durP1;ratioP1;P1;durP2;ratioP2;P2;SDS_P1;SDS_P2;PMS_P1;PMS_P2;Temp;Humidity;BMP_temperature;BMP_pressure;BME280_temperature;BME280_humidity;BME280_pressure;Samples;Min_cycle;Max_cycle;Signal;HPM_P1;HPM_P2
2022/04/26 03:36:59;;;;;;;24.88;15.80;;;6.10;99.90;;;;;;4975962;28;20166;-73
2022/04/26 03:39:25;;;;;;;31.60;17.30;;;6.10;99.90;;;;;;5039826;28;20049;-73
2022/04/26 03:41:51;;;;;;;32.15;16.23;;;6.20;99.90;;;;;;5056293;28;20037;-73
2022/04/26 03:44:17;;;;;;;27.85;15.65;;;6.20;99.90;;;;;;5056036;28;20060;-73
2022/04/26 03:46:43;;;;;;;29.65;16.88;;;6.20;99.90;;;;;;5056489;28;20049;-73
2022/04/26 03:49:08;;;;;;;30.67;17.30;;;6.20;99.90;;;;;;5056078;28;20075;-73
2022/04/26 03:51:34;;;;;;;30.00;16.30;;;6.20;99.90;;;;;;5037606;28;20482;-72
2022/04/26 03:53:59;;;;;;;27.55;16.08;;;6.20;99.90;;;;;;5056365;28;20357;-73
2022/04/26 03:56:25;;;;;;;27.45;16.02;;;6.30;99.90;;;;;;5056303;28;20449;-73
2022/04/26 03:58:50;;;;;;;26.73;15.50;;;6.30;99.90;;;;;;5056278;28;20146;-73
2022/04/26 04:01:16;;;;;;;31.77;16.35;;;6.30;99.90;;;;;;5056283;28;20067;-73
2022/04/26 04:03:41;;;;;;;35.80;16.15;;;6.30;99.90;;;;;;5064330;28;20430;-72
2022/04/26 04:06:07;;;;;;;32.97;15.88;;;6.40;99.90;;;;;;5060480;28;20533;-72
2022/04/26 04:08:33;;;;;;;25.83;15.35;;;6.30;99.90;;;;;;5055850;28;20040;-71
2022/04/26 04:10:59;;;;;;;25.88;15.52;;;6.40;99.90;;;;;;5055807;28;20037;-72
2022/04/26 04:13:24;;;;;;;26.88;15.52;;;6.40;99.90;;;;;;5042284;28;20100;-72
2022/04/26 04:15:50;;;;;;;31.55;15.65;;;6.40;99.90;;;;;;5035830;28;20353;-72
2022/04/26 04:19:17;;;;;;;27.38;15.70;;;6.40;99.90;;;;;;5036082;28;20045;-72
2022/04/26 04:21:01;;;;;;;28.25;13.13;;;6.50;99.90;;;;;;5035983;28;20141;-73
2022/04/26 04:23:26;;;;;;;28.80;15.32;;;6.40;99.90;;;;;;5035995;28;20464;-72
2022/04/26 04:25:52;;;;;;;27.35;13.75;;;6.50;99.90;;;;;;5046883;28;20036;-72
2022/04/26 04:28:17;;;;;;;26.00;13.75;;;6.50;99.90;;;;;;5055872;28;20049;-71
2022/04/26 04:30:43;;;;;;;23.10;12.52;;;6.50;99.90;;;;;;5055768;28;20416;-71
2022/04/26 04:33:09;;;;;;;22.73;13.15;;;6.50;99.90;;;;;;5055858;28;20041;-71
2022/04/26 04:35:34;;;;;;;24.38;13.30;;;6.60;99.90;;;;;;5055512;28;20044;-72
2022/04/26 04:38:00;;;;;;;26.98;12.77;;;6.60;99.90;;;;;;5055839;28;20044;-72
2022/04/26 04:40:25;;;;;;;29.90;12.93;;;6.60;99.90;;;;;;5038008;28;20044;-72
2022/04/26 04:42:51;;;;;;;19.90;12.18;;;6.60;99.90;;;;;;5055580;28;20041;-73
2022/04/26 04:45:16;;;;;;;19.48;11.02;;;6.60;99.90;;;;;;5055210;28;20045;-73
2022/04/26 04:47:42;;;;;;;17.60;10.25;;;6.60;99.90;;;;;;5038204;28;20102;-73
2022/04/26 04:50:08;;;;;;;21.92;10.48;;;6.60;99.90;;;;;;5055322;28;20122;-72
2022/04/26 04:52:33;;;;;;;19.45;10.52;;;6.70;99.90;;;;;;5055539;28;20044;-73
2022/04/26 04:54:59;;;;;;;24.48;10.15;;;6.70;99.90;;;;;;5054172;28;20048;-73
2022/04/26 04:57:25;;;;;;;21.70;10.05;;;6.70;99.90;;;;;;5037222;28;20127;-73
2022/04/26 04:59:50;;;;;;;25.80;10.75;;;6.70;99.90;;;;;;5055245;28;20128;-72
2022/04/26 05:02:16;;;;;;;17.88;10.00;;;6.70;99.90;;;;;;5037813;28;20040;-74
2022/04/26 05:04:42;;;;;;;25.05;10.27;;;6.70;99.90;;;;;;5037732;28;20072;-73
2022/04/26 05:07:09;;;;;;;24.38;10.00;;;6.70;99.90;;;;;;5042518;28;20106;-72
2022/04/26 05:09:34;;;;;;;17.08;9.77;;;6.80;99.90;;;;;;5054852;28;20479;-73
2022/04/26 05:12:00;;;;;;;19.88;10.77;;;6.80;99.90;;;;;;5053822;28;20131;-73
2022/04/26 05:14:26;;;;;;;19.95;9.85;;;7.00;99.90;;;;;;5037625;28;20437;-73
2022/04/26 05:16:51;;;;;;;24.08;10.05;;;7.00;99.90;;;;;;5054824;28;20056;-73
2022/04/26 05:19:17;;;;;;;18.52;9.52;;;7.00;99.90;;;;;;5054561;28;20053;-72
2022/04/26 05:21:42;;;;;;;21.88;9.60;;;7.10;99.90;;;;;;5054891;28;20041;-73
2022/04/26 05:26:52;;;;;;;17.63;9.27;;;7.30;99.90;;;;;;5042104;28;20045;-72
2022/04/26 05:29:18;;;;;;;16.20;8.70;;;7.50;99.90;;;;;;5045118;28;20037;-72
2022/04/26 05:31:43;;;;;;;22.58;8.45;;;7.60;99.90;;;;;;5054554;28;20449;-72
2022/04/26 05:34:09;;;;;;;20.20;7.30;;;7.70;99.90;;;;;;5037374;28;20053;-73
2022/04/26 05:36:34;;;;;;;14.40;7.07;;;7.90;99.90;;;;;;5055045;28;20442;-72
2022/04/26 05:39:01;;;;;;;18.73;6.82;;;8.10;99.90;;;;;;5054494;28;20449;-73
2022/04/26 05:41:27;;;;;;;17.10;7.00;;;8.40;99.90;;;;;;5054547;28;20350;-73
2022/04/26 05:43:52;;;;;;;16.73;6.50;;;8.90;99.90;;;;;;5054681;28;20037;-74
2022/04/26 05:46:18;;;;;;;12.25;5.43;;;9.50;99.90;;;;;;5054323;28;20051;-73
2022/04/26 05:48:43;;;;;;;13.18;6.00;;;10.30;99.90;;;;;;5054703;28;20116;-75
2022/04/26 05:51:09;;;;;;;12.57;4.93;;;11.00;99.90;;;;;;5054619;28;20390;-74
2022/04/26 05:53:35;;;;;;;14.68;5.13;;;11.40;99.90;;;;;;5036897;28;20081;-74
2022/04/26 05:56:01;;;;;;;17.77;5.60;;;11.80;99.90;;;;;;5054341;28;20052;-73
2022/04/26 05:58:26;;;;;;;17.88;4.53;;;12.20;99.90;;;;;;5036416;28;20365;-72
2022/04/26 06:00:52;;;;;;;12.85;4.95;;;12.60;99.90;;;;;;5037150;28;20045;-73
2022/04/26 06:03:17;;;;;;;13.38;4.53;;;12.80;99.90;;;;;;5037249;28;20052;-73
2022/04/26 06:05:43;;;;;;;11.48;4.57;;;13.40;99.90;;;;;;5055511;28;20127;-74
2022/04/26 06:08:09;;;;;;;13.00;4.18;;;14.00;99.90;;;;;;5040434;28;20049;-73
2022/04/26 06:10:38;;;;;;;13.32;4.10;;;14.30;99.90;;;;;;5058092;28;20037;-73
2022/04/26 06:13:03;;;;;;;11.20;3.90;;;14.40;99.90;;;;;;5040983;28;20102;-72
2022/04/26 06:15:29;;;;;;;10.70;4.00;;;14.70;99.90;;;;;;5058279;28;20052;-74
2022/04/26 06:17:55;;;;;;;8.82;3.75;;;15.00;99.90;;;;;;5058362;28;20116;-74
2022/04/26 06:20:23;;;;;;;14.38;4.40;;;15.20;99.90;;;;;;5058352;28;20453;-73
2022/04/26 06:22:49;;;;;;;9.75;3.70;;;15.40;99.90;;;;;;5057914;28;20446;-73
2022/04/26 06:25:14;;;;;;;12.05;3.78;;;15.70;99.90;;;;;;5057901;28;20084;-74
2022/04/26 06:27:40;;;;;;;9.15;4.00;;;15.70;99.90;;;;;;5054334;28;20072;-72
2022/04/26 06:30:06;;;;;;;9.70;4.00;;;15.10;99.90;;;;;;5057638;28;20040;-72
2022/04/26 06:32:32;;;;;;;10.05;4.13;;;13.90;99.90;;;;;;5057882;28;20041;-74
2022/04/26 06:34:57;;;;;;;11.20;3.78;;;13.00;99.90;;;;;;5057789;28;20111;-74
2022/04/26 06:37:23;;;;;;;11.80;4.45;;;12.20;99.90;;;;;;5057867;28;20066;-72
2022/04/26 06:39:51;;;;;;;12.80;4.20;;;11.70;99.90;;;;;;5057720;28;20036;-73
2022/04/26 06:42:17;;;;;;;9.38;4.00;;;11.30;99.90;;;;;;5057494;28;20457;-73
2022/04/26 06:44:42;;;;;;;11.68;4.55;;;11.30;99.90;;;;;;5057821;28;20044;-73
2022/04/26 06:47:08;;;;;;;12.98;4.40;;;11.10;99.90;;;;;;5057598;28;20103;-73
2022/04/26 06:49:33;;;;;;;12.00;4.20;;;11.10;99.90;;;;;;5039763;28;20127;-74
2022/04/26 06:51:59;;;;;;;10.90;3.58;;;11.80;99.90;;;;;;5039928;28;20339;-74
2022/04/26 06:54:25;;;;;;;10.88;3.92;;;12.60;99.90;;;;;;5057430;28;20041;-74
2022/04/26 06:56:50;;;;;;;11.23;3.72;;;12.50;99.90;;;;;;5056846;28;20453;-73
2022/04/26 06:59:16;;;;;;;8.57;3.28;;;12.20;99.90;;;;;;5057338;28;20052;-72
2022/04/26 07:01:41;;;;;;;10.32;3.45;;;12.00;99.90;;;;;;5057337;28;20041;-73
2022/04/26 07:04:08;;;;;;;11.60;3.17;;;11.80;99.90;;;;;;5039701;28;20084;-73
2022/04/26 07:06:34;;;;;;;9.75;3.25;;;11.80;99.90;;;;;;5053619;28;20158;-72
2022/04/26 07:09:01;;;;;;;8.65;3.00;;;11.80;99.90;;;;;;5056627;28;20465;-71
2022/04/26 07:11:27;;;;;;;14.63;3.80;;;11.80;99.90;;;;;;5045805;28;20041;-71
2022/04/26 07:13:53;;;;;;;8.43;3.35;;;11.60;99.90;;;;;;5047541;28;20033;-72
2022/04/26 07:16:19;;;;;;;11.15;3.42;;;11.60;99.90;;;;;;5045816;28;20068;-71
2022/04/26 07:18:45;;;;;;;10.43;3.33;;;11.40;99.90;;;;;;5045321;28;20049;-72
2022/04/26 07:21:10;;;;;;;11.10;3.38;;;11.30;99.90;;;;;;5041406;28;20498;-71
2022/04/26 07:23:36;;;;;;;9.70;2.90;;;10.90;99.90;;;;;;5037298;28;20132;-71
2022/04/26 07:26:01;;;;;;;8.98;3.22;;;10.90;99.90;;;;;;5019737;28;20064;-72
2022/04/26 07:28:27;;;;;;;9.77;3.15;;;11.10;99.90;;;;;;5056741;28;20041;-73
2022/04/26 07:30:53;;;;;;;12.00;3.42;;;11.70;99.90;;;;;;5056600;28;20056;-74
2022/04/26 07:36:03;;;;;;;14.30;3.20;;;12.70;99.90;;;;;;5056976;28;20048;-73
2022/04/26 07:38:28;;;;;;;10.98;2.85;;;13.40;99.90;;;;;;5056492;28;20049;-74
2022/04/26 07:40:54;;;;;;;10.95;3.25;;;13.30;99.90;;;;;;5055426;28;20043;-73
2022/04/26 07:43:21;;;;;;;11.40;3.40;;;13.00;99.90;;;;;;5055564;28;20045;-75
2022/04/26 07:45:46;;;;;;;7.00;2.83;;;12.40;99.90;;;;;;5056704;28;20140;-72
2022/04/26 07:48:16;;;;;;;12.00;3.20;;;11.80;99.90;;;;;;5056021;28;20519;-73
2022/04/26 07:50:44;;;;;;;9.32;3.47;;;11.50;99.90;;;;;;5056141;28;20055;-73
2022/04/26 07:53:10;;;;;;;9.50;3.45;;;11.20;99.90;;;;;;5056235;28;20053;-73
2022/04/26 07:55:37;;;;;;;11.02;3.00;;;11.10;99.90;;;;;;5056358;28;20124;-73
2022/04/26 07:58:03;;;;;;;8.88;2.92;;;11.30;99.90;;;;;;5056155;28;20080;-74
2022/04/26 08:00:29;;;;;;;9.25;3.28;;;11.30;99.90;;;;;;5053661;28;20345;-74
2022/04/26 08:02:55;;;;;;;10.27;3.03;;;11.40;99.90;;;;;;5056266;28;20060;-74
2022/04/26 08:05:21;;;;;;;9.20;2.90;;;11.50;99.90;;;;;;5055878;28;20052;-73
2022/04/26 08:07:48;;;;;;;5.55;2.60;;;12.20;99.90;;;;;;5055990;28;20057;-73
2022/04/26 08:10:14;;;;;;;8.88;3.05;;;13.40;99.90;;;;;;5055777;28;20049;-72
2022/04/26 08:12:42;;;;;;;10.70;2.95;;;14.30;99.90;;;;;;5056008;28;20463;-73
2022/04/26 08:15:13;;;;;;;8.02;2.75;;;15.00;99.90;;;;;;5056315;28;20084;-75
2022/04/26 08:17:42;;;;;;;9.07;2.67;;;15.20;99.90;;;;;;5038576;28;20060;-73
2022/04/26 08:20:10;;;;;;;9.10;3.20;;;15.30;99.90;;;;;;5055507;28;20523;-74
2022/04/26 08:22:37;;;;;;;13.18;3.28;;;15.00;99.90;;;;;;5055702;28;20052;-73
2022/04/26 08:27:47;;;;;;;9.75;3.28;;;14.00;99.90;;;;;;5054953;28;20461;-73
2022/04/26 08:30:13;;;;;;;7.82;2.90;;;13.40;99.90;;;;;;5054913;28;20128;-74
2022/04/26 08:32:40;;;;;;;6.68;2.85;;;13.40;99.90;;;;;;5055434;28;20084;-74
2022/04/26 08:35:06;;;;;;;10.73;3.30;;;13.50;99.90;;;;;;5055588;28;20350;-73
2022/04/26 08:37:35;;;;;;;9.32;3.20;;;13.20;99.90;;;;;;5055925;28;20060;-74
2022/04/26 08:40:04;;;;;;;6.70;3.17;;;12.80;99.90;;;;;;5055579;28;20123;-73
2022/04/26 08:42:38;;;;;;;9.48;3.42;;;12.50;99.90;;;;;;5052519;28;20419;-73
2022/04/26 08:45:06;;;;;;;8.52;3.22;;;12.30;99.90;;;;;;5022740;28;20064;-74
2022/04/26 08:53:01;;;;;;;13.55;3.70;;;11.90;99.90;;;;;;5055164;28;20085;-73
2022/04/26 08:55:27;;;;;;;6.05;3.17;;;11.80;99.90;;;;;;5055564;28;20052;-74
2022/04/26 08:57:53;;;;;;;7.63;3.30;;;11.80;99.90;;;;;;5055020;28;20045;-74
2022/04/26 09:00:18;;;;;;;10.07;3.10;;;11.90;99.90;;;;;;5055328;28;20110;-70
2022/04/26 09:03:00;;;;;;;6.00;3.15;;;12.30;99.90;;;;;;5054966;28;20045;-74
2022/04/26 09:05:26;;;;;;;9.98;3.10;;;12.30;99.90;;;;;;5039568;28;20408;-75
2022/04/26 09:07:51;;;;;;;10.32;3.40;;;12.20;99.90;;;;;;5017165;28;20046;-74
2022/04/26 09:10:20;;;;;;;6.75;3.47;;;12.00;99.90;;;;;;5034681;28;20115;-74
2022/04/26 09:13:10;;;;;;;10.73;2.97;;;11.80;99.90;;;;;;5034368;28;20141;-75
2022/04/26 09:15:43;;;;;;;10.73;2.78;;;12.00;99.90;;;;;;5016450;28;20081;-75
2022/04/26 09:18:15;;;;;;;9.63;3.00;;;12.40;99.90;;;;;;5017195;28;20064;-75
2022/04/26 09:20:42;;;;;;;9.15;2.88;;;12.80;99.90;;;;;;5017035;28;20107;-74
2022/04/26 09:23:26;;;;;;;6.93;2.72;;;13.10;99.90;;;;;;5034541;28;20049;-74
2022/04/26 09:26:06;;;;;;;11.40;3.22;;;13.10;99.90;;;;;;5016881;28;20061;-75
2022/04/26 09:28:32;;;;;;;8.80;3.35;;;12.80;99.90;;;;;;5034094;28;20091;-75
2022/04/26 09:30:57;;;;;;;7.75;3.13;;;12.40;99.90;;;;;;5016939;28;20077;-74
2022/04/26 09:33:38;;;;;;;9.93;3.60;;;12.20;99.90;;;;;;5016922;28;20041;-76
2022/04/26 09:36:09;;;;;;;11.55;3.30;;;12.60;99.90;;;;;;5017012;28;20072;-74
2022/04/26 09:38:36;;;;;;;9.38;3.38;;;12.50;99.90;;;;;;5031288;28;20046;-75
2022/04/26 09:41:05;;;;;;;8.32;2.78;;;12.60;99.90;;;;;;5041342;28;20090;-75
2022/04/26 09:43:32;;;;;;;13.20;3.42;;;12.90;99.90;;;;;;5024074;28;20132;-75
2022/04/26 09:45:59;;;;;;;7.57;2.90;;;13.20;99.90;;;;;;5024271;28;20045;-74
2022/04/26 09:48:36;;;;;;;7.28;2.90;;;13.40;99.90;;;;;;5058050;28;20373;-75
2022/04/26 09:51:06;;;;;;;6.55;3.00;;;13.50;99.90;;;;;;5058126;28;20120;-74
2022/04/26 09:53:32;;;;;;;8.85;3.40;;;13.50;99.90;;;;;;5058082;28;20088;-74
2022/04/26 09:56:03;;;;;;;8.45;3.78;;;13.50;99.90;;;;;;5040041;28;20053;-75
2022/04/26 09:58:30;;;;;;;9.30;3.50;;;13.30;99.90;;;;;;5057637;28;20049;-75
2022/04/26 10:00:57;;;;;;;7.68;2.60;;;13.20;99.90;;;;;;5040636;28;20056;-73
2022/04/26 10:03:32;;;;;;;6.07;3.10;;;13.30;99.90;;;;;;5057729;28;20404;-73
2022/04/26 10:06:05;;;;;;;12.52;3.10;;;13.10;99.90;;;;;;5057787;28;20065;-74
2022/04/26 10:08:32;;;;;;;;;;;13.20;99.90;;;;;;5058408;28;20068;-76
2022/04/26 10:11:00;;;;;;;8.90;3.00;;;13.30;99.90;;;;;;5057454;28;19931;-76
2022/04/26 10:13:35;;;;;;;6.90;3.30;;;13.40;99.90;;;;;;5057627;28;20053;-75
2022/04/26 10:16:04;;;;;;;7.82;3.47;;;13.40;99.90;;;;;;5023515;28;20045;-76
2022/04/26 10:18:43;;;;;;;9.55;3.10;;;13.00;99.90;;;;;;5057561;28;20124;-75
2022/04/26 10:21:29;;;;;;;6.13;3.45;;;13.00;99.90;;;;;;5040309;28;20067;-74
2022/04/26 10:23:56;;;;;;;8.45;3.30;;;13.10;99.90;;;;;;5056958;28;20049;-74
2022/04/26 10:26:25;;;;;;;6.82;2.80;;;13.20;99.90;;;;;;5057507;28;20136;-74
2022/04/26 10:28:57;;;;;;;4.93;2.60;;;13.30;99.90;;;;;;5040674;28;20547;-75
2022/04/26 10:31:36;;;;;;;12.23;3.00;;;13.50;99.90;;;;;;5058255;28;20037;-76
2022/04/26 10:34:31;;;;;;;9.15;3.20;;;13.50;99.90;;;;;;5057421;28;20091;-74
2022/04/26 10:37:06;;;;;;;8.10;3.22;;;13.50;99.90;;;;;;5042447;28;20053;-74
2022/04/26 10:39:37;;;;;;;5.18;2.53;;;13.30;99.90;;;;;;5024220;28;20048;-73
2022/04/26 10:42:07;;;;;;;7.35;3.03;;;13.30;99.90;;;;;;5039928;28;20107;-74
2022/04/26 10:44:38;;;;;;;6.43;3.10;;;13.30;99.90;;;;;;5058254;28;20124;-73
2022/04/26 10:47:03;;;;;;;7.30;3.15;;;13.00;99.90;;;;;;5040039;28;20045;-72
2022/04/26 10:49:32;;;;;;;5.22;3.10;;;12.90;99.90;;;;;;5057481;28;20041;-73
2022/04/26 10:52:18;;;;;;;6.57;2.72;;;13.00;99.90;;;;;;5057310;28;20044;-75
2022/04/26 10:54:58;;;;;;;6.97;3.42;;;13.10;99.90;;;;;;5057403;28;20044;-70
2022/04/26 10:57:35;;;;;;;12.32;3.53;;;13.40;99.90;;;;;;5057841;28;20354;-74
2022/04/26 11:00:23;;;;;;;8.40;3.45;;;13.60;99.90;;;;;;5057397;28;20049;-74
2022/04/26 11:02:50;;;;;;;6.93;3.08;;;13.60;99.20;;;;;;5031217;28;20040;-76
2022/04/26 11:05:27;;;;;;;7.18;2.85;;;13.40;99.40;;;;;;5057085;28;20056;-76
2022/04/26 11:07:55;;;;;;;8.00;3.15;;;13.50;99.80;;;;;;5039701;28;20115;-70
2022/04/26 11:10:26;;;;;;;6.97;2.92;;;13.60;99.80;;;;;;5057353;28;20428;-72
2022/04/26 11:12:52;;;;;;;6.70;2.63;;;13.60;99.10;;;;;;5057338;28;20577;-74
2022/04/26 11:15:23;;;;;;;5.55;2.25;;;13.40;96.80;;;;;;5056893;28;20469;-74
2022/04/26 11:17:51;;;;;;;8.05;3.50;;;13.60;98.10;;;;;;5039711;28;20080;-75
2022/04/26 11:20:22;;;;;;;7.38;3.28;;;13.60;98.50;;;;;;5053929;28;20059;-74
2022/04/26 11:22:58;;;;;;;9.13;3.15;;;13.70;98.80;;;;;;5056968;28;20053;-73
2022/04/26 11:28:12;;;;;;;7.85;3.97;;;14.10;97.80;;;;;;5057103;28;20048;-74
2022/04/26 11:30:51;;;;;;;8.20;3.17;;;14.10;97.80;;;;;;5039394;28;20091;-75
2022/04/26 11:33:23;;;;;;;7.97;2.80;;;14.00;97.80;;;;;;5056470;28;20124;-76
2022/04/26 11:36:08;;;;;;;6.22;3.47;;;14.00;98.20;;;;;;5054290;28;20045;-75
2022/04/26 11:38:33;;;;;;;6.15;2.85;;;14.00;97.00;;;;;;5039462;28;20041;-75
2022/04/26 11:41:00;;;;;;;5.68;2.80;;;14.20;95.90;;;;;;5039319;28;20122;-76
2022/04/26 11:43:31;;;;;;;7.00;2.97;;;14.20;95.90;;;;;;5056893;28;20071;-75
2022/04/26 11:45:57;;;;;;;9.43;3.03;;;14.20;95.50;;;;;;5056352;28;20398;-73
2022/04/26 11:48:25;;;;;;;9.23;3.58;;;14.40;96.60;;;;;;5038750;28;20111;-72
2022/04/26 11:50:53;;;;;;;8.00;3.03;;;14.30;95.90;;;;;;5056507;28;20052;-73
2022/04/26 11:53:22;;;;;;;10.40;3.00;;;14.20;96.30;;;;;;5038823;28;20106;-75
2022/04/26 11:56:00;;;;;;;5.60;3.03;;;13.90;95.70;;;;;;5056386;28;20040;-73
2022/04/26 11:58:40;;;;;;;5.97;3.05;;;13.80;96.40;;;;;;5055734;28;20056;-73
2022/04/26 12:01:15;;;;;;;6.25;2.92;;;14.00;97.50;;;;;;5055917;28;20091;-75
2022/04/26 12:03:49;;;;;;;10.68;3.58;;;14.20;97.90;;;;;;5038043;28;20080;-75
2022/04/26 12:06:31;;;;;;;6.55;2.83;;;14.40;96.30;;;;;;5039819;28;20049;-74
2022/04/26 12:08:59;;;;;;;5.82;2.85;;;14.10;95.00;;;;;;5055762;28;20052;-73
2022/04/26 12:11:27;;;;;;;5.43;3.10;;;14.00;96.30;;;;;;5056149;28;20155;-75
2022/04/26 12:14:02;;;;;;;5.25;2.80;;;14.10;97.00;;;;;;5055931;28;20044;-73
2022/04/26 12:16:31;;;;;;;5.43;2.78;;;14.20;95.90;;;;;;5055765;28;20117;-74
2022/04/26 12:19:02;;;;;;;8.98;3.28;;;14.20;95.10;;;;;;5056053;28;20477;-73
2022/04/26 12:21:42;;;;;;;4.65;2.60;;;13.80;95.10;;;;;;5055850;28;20045;-74
2022/04/26 12:24:11;;;;;;;6.97;2.70;;;13.50;95.80;;;;;;5038007;28;20127;-76
2022/04/26 12:26:37;;;;;;;5.80;2.88;;;13.50;96.70;;;;;;5055764;28;20041;-75
2022/04/26 12:29:12;;;;;;;7.50;2.97;;;13.60;95.90;;;;;;5055617;28;20056;-72
2022/04/26 12:31:44;;;;;;;5.63;2.75;;;13.60;96.50;;;;;;5054797;28;20060;-72
2022/04/26 12:34:19;;;;;;;7.35;2.65;;;13.70;96.40;;;;;;5055425;28;20041;-75
2022/04/26 12:36:58;;;;;;;3.63;2.28;;;13.70;95.80;;;;;;5055420;28;20037;-73
2022/04/26 12:39:42;;;;;;;6.55;2.80;;;13.80;95.40;;;;;;5038003;28;20102;-73
2022/04/26 12:42:09;;;;;;;5.30;2.92;;;13.70;95.20;;;;;;5038036;28;20469;-71
2022/04/26 12:44:37;;;;;;;9.18;2.92;;;13.90;95.80;;;;;;5055068;28;20052;-73
2022/04/26 12:52:55;;;;;;;5.50;2.60;;;14.40;94.70;;;;;;5055328;28;20357;-72
2022/04/26 12:55:31;;;;;;;7.38;3.30;;;14.20;93.90;;;;;;5055098;28;20076;-74
2022/04/26 12:58:00;;;;;;;5.18;2.50;;;14.20;95.10;;;;;;5055150;28;20052;-74
2022/04/26 13:00:26;;;;;;;6.03;2.83;;;14.40;95.50;;;;;;5054983;28;20110;-73
2022/04/26 13:02:53;;;;;;;5.88;2.33;;;14.40;94.90;;;;;;5037623;28;20461;-74
2022/04/26 13:05:20;;;;;;;7.35;2.90;;;14.40;94.90;;;;;;5037675;28;20049;-72
2022/04/26 13:07:47;;;;;;;6.57;2.63;;;14.40;94.10;;;;;;5055309;28;20049;-73
2022/04/26 13:10:17;;;;;;;6.05;2.60;;;14.10;94.70;;;;;;5037258;28;20052;-74
2022/04/26 13:12:43;;;;;;;6.15;2.63;;;14.20;95.70;;;;;;5054941;28;20036;-73
2022/04/26 13:15:09;;;;;;;8.27;2.60;;;14.50;95.40;;;;;;5054205;28;20075;-73
2022/04/26 13:17:36;;;;;;;7.55;2.35;;;14.60;94.60;;;;;;5054829;28;20041;-73
2022/04/26 13:20:02;;;;;;;6.50;2.60;;;14.40;95.50;;;;;;5038032;28;20049;-72
2022/04/26 13:22:29;;;;;;;3.90;2.25;;;14.40;93.60;;;;;;5054813;28;20049;-75
2022/04/26 13:24:54;;;;;;;6.50;2.50;;;14.10;93.60;;;;;;5054807;28;20056;-74
2022/04/26 13:27:20;;;;;;;6.75;2.70;;;13.70;94.00;;;;;;5054804;28;20462;-73
2022/04/26 13:29:46;;;;;;;6.75;2.78;;;13.60;94.70;;;;;;5054527;28;20037;-74
2022/04/26 13:32:12;;;;;;;7.50;2.95;;;13.70;95.20;;;;;;5037044;28;20049;-73
2022/04/26 13:34:37;;;;;;;4.68;2.15;;;14.00;95.20;;;;;;5054585;28;20071;-73
2022/04/26 13:37:07;;;;;;;6.68;2.35;;;14.40;94.30;;;;;;5051466;28;20045;-73
2022/04/26 13:39:34;;;;;;;5.85;2.45;;;14.60;94.50;;;;;;5055075;28;20041;-71
2022/04/26 13:41:59;;;;;;;6.75;2.55;;;14.70;94.30;;;;;;5054652;28;20098;-70
2022/04/26 13:44:25;;;;;;;5.10;2.35;;;14.80;94.70;;;;;;5054619;28;20454;-71
2022/04/26 13:46:50;;;;;;;7.70;2.50;;;15.00;94.50;;;;;;5054465;28;20186;-74
2022/04/26 13:49:16;;;;;;;5.22;2.20;;;15.20;94.10;;;;;;5037201;28;20537;-75
2022/04/26 13:51:42;;;;;;;7.72;2.53;;;15.40;93.50;;;;;;5051165;28;20040;-74
2022/04/26 13:54:08;;;;;;;5.10;2.50;;;15.50;93.90;;;;;;5050906;28;20464;-75
2022/04/26 13:56:34;;;;;;;5.78;2.70;;;15.60;92.40;;;;;;5032987;28;20132;-76
2022/04/26 13:59:00;;;;;;;7.53;2.40;;;15.30;91.70;;;;;;5040806;28;20052;-75
2022/04/26 14:01:25;;;;;;;5.75;2.40;;;15.50;92.50;;;;;;5053263;28;20077;-75
2022/04/26 14:03:51;;;;;;;5.45;2.20;;;15.50;91.20;;;;;;5054032;28;20041;-74
2022/04/26 14:06:21;;;;;;;6.80;3.30;;;15.40;91.90;;;;;;5054192;28;20122;-74
2022/04/26 14:08:51;;;;;;;7.85;2.63;;;15.60;91.60;;;;;;5053967;28;20049;-75
2022/04/26 14:11:17;;;;;;;6.03;2.72;;;15.60;91.60;;;;;;5054032;28;20375;-73
2022/04/26 14:21:56;;;;;;;9.23;2.85;;;15.90;92.30;;;;;;5053332;28;20049;-74
2022/04/26 14:24:22;;;;;;;6.90;2.40;;;16.10;91.30;;;;;;5051994;28;20049;-73
2022/04/26 14:26:49;;;;;;;8.20;2.80;;;15.90;92.00;;;;;;5054589;28;20045;-73
2022/04/26 14:29:15;;;;;;;5.47;2.95;;;15.70;92.20;;;;;;5057070;28;20055;-73
2022/04/26 14:31:42;;;;;;;10.05;3.33;;;15.60;91.70;;;;;;5056878;28;20041;-72
2022/04/26 14:34:08;;;;;;;6.30;2.70;;;15.30;92.40;;;;;;5039787;28;20048;-72
2022/04/26 14:36:34;;;;;;;9.40;3.50;;;15.00;93.00;;;;;;5056974;28;20041;-73
2022/04/26 14:39:00;;;;;;;7.35;3.58;;;14.70;93.10;;;;;;5056836;28;20118;-73
2022/04/26 14:41:26;;;;;;;7.28;3.10;;;14.30;94.10;;;;;;5056813;28;20123;-73
2022/04/26 14:43:53;;;;;;;6.60;3.30;;;14.10;94.70;;;;;;5052245;28;20067;-74
2022/04/26 14:46:18;;;;;;;8.27;3.38;;;14.00;95.30;;;;;;5057072;28;20103;-72
2022/04/26 14:48:44;;;;;;;11.45;3.10;;;13.80;95.60;;;;;;5057256;28;20353;-71
2022/04/26 14:51:11;;;;;;;9.27;3.20;;;13.70;96.20;;;;;;5057024;28;20059;-72
2022/04/26 14:53:37;;;;;;;10.02;3.83;;;13.80;96.90;;;;;;5056986;28;20056;-72
2022/04/26 14:56:04;;;;;;;10.68;3.78;;;13.70;96.50;;;;;;5056874;28;20449;-72
2022/04/26 14:58:30;;;;;;;5.00;2.70;;;13.80;96.70;;;;;;5056976;28;20398;-72
2022/04/26 15:00:56;;;;;;;8.25;3.05;;;14.00;96.90;;;;;;5056547;28;20088;-71
2022/04/26 15:03:22;;;;;;;8.88;3.20;;;14.30;96.80;;;;;;5056820;28;20073;-72
2022/04/26 15:05:47;;;;;;;7.00;2.60;;;14.50;95.60;;;;;;5004384;28;20057;-71
2022/04/26 15:10:57;;;;;;;6.93;2.95;;;14.60;95.10;;;;;;5036894;28;20049;-72
2022/04/26 15:18:51;;;;;;;5.85;2.20;;;14.80;94.40;;;;;;5037186;28;20057;-73
2022/04/26 15:21:18;;;;;;;5.15;2.70;;;14.70;94.10;;;;;;5050000;28;20139;-73
2022/04/26 15:23:44;;;;;;;4.63;2.15;;;14.60;92.30;;;;;;5056799;28;20049;-71
2022/04/26 15:26:11;;;;;;;5.07;2.55;;;14.80;94.00;;;;;;5056586;28;20041;-69
2022/04/26 15:28:38;;;;;;;6.15;2.05;;;14.80;93.50;;;;;;5038716;28;20045;-69
2022/04/26 15:31:05;;;;;;;8.02;2.75;;;14.90;93.50;;;;;;5056173;28;20461;-70
2022/04/26 15:33:31;;;;;;;6.47;2.60;;;14.80;93.40;;;;;;5056428;28;20361;-74
2022/04/26 15:35:57;;;;;;;11.02;2.50;;;15.00;92.70;;;;;;5035844;28;20126;-73
2022/04/26 15:38:27;;;;;;;11.32;2.72;;;14.90;92.30;;;;;;5035083;28;20046;-73
2022/04/26 15:40:53;;;;;;;5.05;2.20;;;14.90;92.90;;;;;;5036534;28;20059;-73
2022/04/26 15:43:19;;;;;;;5.20;2.10;;;14.60;92.00;;;;;;5035248;28;20052;-73
2022/04/26 15:45:45;;;;;;;7.78;2.67;;;14.60;92.90;;;;;;5036520;28;20051;-73
2022/04/26 15:48:11;;;;;;;7.68;3.33;;;14.90;93.60;;;;;;5036049;28;20425;-73
2022/04/26 15:50:41;;;;;;;4.65;2.33;;;14.90;93.20;;;;;;5043591;28;20110;-73
2022/04/26 15:53:07;;;;;;;7.35;2.38;;;15.00;93.00;;;;;;5052742;28;20049;-74
2022/04/26 15:55:33;;;;;;;5.82;2.75;;;15.20;92.20;;;;;;5053109;28;20059;-72
2022/04/26 15:57:58;;;;;;;6.78;2.60;;;15.10;92.10;;;;;;5034855;28;20045;-73
2022/04/26 16:00:24;;;;;;;7.07;2.83;;;14.90;92.50;;;;;;5034536;28;20061;-74
2022/04/26 16:02:51;;;;;;;5.32;2.55;;;14.80;92.50;;;;;;5036121;28;20042;-73
2022/04/26 16:05:16;;;;;;;10.18;3.00;;;14.70;93.20;;;;;;5035172;28;20114;-73
2022/04/26 16:07:42;;;;;;;7.20;2.35;;;14.70;94.10;;;;;;5035757;28;20424;-73
2022/04/26 16:21:05;;;;;;;4.57;2.42;;;15.00;92.10;;;;;;5055329;28;20061;-73
2022/04/26 16:23:31;;;;;;;5.00;2.40;;;14.60;92.40;;;;;;5055418;28;20102;-74
2022/04/26 16:26:02;;;;;;;8.55;2.58;;;14.40;92.80;;;;;;5055065;28;20053;-74
2022/04/26 16:28:31;;;;;;;4.72;2.00;;;14.40;92.80;;;;;;5020871;28;20089;-75
2022/04/26 16:30:57;;;;;;;6.70;2.20;;;14.40;92.80;;;;;;5035298;28;20111;-73
2022/04/26 16:33:23;;;;;;;7.05;2.13;;;14.20;91.80;;;;;;5035646;28;20049;-75
2022/04/26 16:35:48;;;;;;;9.40;2.88;;;14.00;92.70;;;;;;5034205;28;20115;-75
2022/04/26 16:38:17;;;;;;;7.32;2.53;;;14.00;93.00;;;;;;5037597;28;20033;-74
2022/04/26 16:40:44;;;;;;;4.75;2.20;;;14.00;93.30;;;;;;5055332;28;20045;-74
2022/04/26 16:43:10;;;;;;;7.15;2.50;;;14.00;93.70;;;;;;5054911;28;20069;-74
2022/04/26 16:45:36;;;;;;;4.65;2.45;;;13.90;93.50;;;;;;5034665;28;20053;-72
2022/04/26 16:48:02;;;;;;;5.82;2.50;;;13.90;93.60;;;;;;5035140;28;20037;-72
2022/04/26 16:50:28;;;;;;;5.72;2.30;;;13.70;93.40;;;;;;5034506;28;20477;-74
2022/04/26 16:52:54;;;;;;;6.72;2.90;;;13.50;93.60;;;;;;5043304;28;20094;-74
2022/04/26 16:55:21;;;;;;;9.18;2.70;;;13.40;93.80;;;;;;5053801;28;20347;-74
2022/04/26 16:57:47;;;;;;;7.90;2.47;;;13.20;94.10;;;;;;5034107;28;20064;-74
2022/04/26 17:00:14;;;;;;;5.60;3.00;;;13.00;94.70;;;;;;5051006;28;20053;-73
2022/04/26 17:02:40;;;;;;;6.60;2.80;;;13.00;95.30;;;;;;5049115;28;20052;-73
2022/04/26 17:05:06;;;;;;;5.45;2.80;;;12.90;95.30;;;;;;5048235;28;20063;-69
2022/04/26 17:07:32;;;;;;;6.55;2.75;;;12.80;95.40;;;;;;5047988;28;20033;-72
2022/04/26 17:09:57;;;;;;;8.18;3.15;;;12.50;95.90;;;;;;5053173;28;20037;-72
2022/04/26 17:12:26;;;;;;;6.78;2.80;;;12.40;96.40;;;;;;5044278;28;20059;-73